アブダビ の空港の天気 - METARとTAF

アブダビ国際空港 ( OMAA / AUH ) - アラブ首長国連邦 アブダビ
飛行場実況気象(Metar)
観測時間02/22 16:00 GST (02/22 12:00 UTC)
風向・風速北北西 5m/s
視程8000m
天気現象
なし
気温27℃
湿度66%
気圧1016hPa
METAROMAA 221200Z 34010KT 8000 NSC 27/20 Q1016 NOSIG
過去の天気等 Google飛行場航空写真 Wunderground天気予報

過去48時間のMETAR

飛行場予報(TAF)
発表時間: 2/22 15:00 GST (2/22 11:00 UTC)
予報対象時間: 22日16時 GST ~ 23日22時 GST
風向・風速北北西 5m/s
視程8000m
なし
22日22時 GST ~ 22日24時 GST に徐々に
風向・風速北北東 3m/s
23日1時 GST から 確率 40% で
風向・風速不定 1m/s
視程3000m
天気現象もや
全天の8割程度の雲 雲底高度 240m
23日4時 GST から 確率 30% で
視程500m
天気現象
全天を覆う雲 鉛直視程 30m
23日13時 GST ~ 23日15時 GST に徐々に
風向・風速北西 4m/s
TAF OMAA 221100Z 2212/2318 33010KT 8000 NSC
BECMG 2218/2220 03006KT
PROB40 2221/2305 VRB02KT 3000 BR BKN008
PROB30 2300/2304 0500 FG VV001
BECMG 2309/2311 32008KT